sensor_id;sensor_type;location;lat;lon;timestamp;temperature;humidity
810;DHT22;387;48.772;9.186;2022-12-13T00:00:32;-4.00;86.00
810;DHT22;387;48.772;9.186;2022-12-13T00:02:57;-3.90;86.20
810;DHT22;387;48.772;9.186;2022-12-13T00:05:23;-3.90;86.20
810;DHT22;387;48.772;9.186;2022-12-13T00:07:49;-4.00;86.20
810;DHT22;387;48.772;9.186;2022-12-13T00:10:14;-4.00;86.20
810;DHT22;387;48.772;9.186;2022-12-13T00:12:40;-4.00;86.20
810;DHT22;387;48.772;9.186;2022-12-13T00:15:06;-4.00;86.20
810;DHT22;387;48.772;9.186;2022-12-13T00:17:32;-4.00;86.50
810;DHT22;387;48.772;9.186;2022-12-13T00:19:57;-4.10;86.50
810;DHT22;387;48.772;9.186;2022-12-13T00:22:23;-4.00;86.60
810;DHT22;387;48.772;9.186;2022-12-13T00:24:48;-4.00;86.60
810;DHT22;387;48.772;9.186;2022-12-13T00:27:14;-4.10;86.50
810;DHT22;387;48.772;9.186;2022-12-13T00:29:40;-4.20;86.60
810;DHT22;387;48.772;9.186;2022-12-13T00:32:05;-4.20;86.60
810;DHT22;387;48.772;9.186;2022-12-13T00:34:31;-4.20;86.80
810;DHT22;387;48.772;9.186;2022-12-13T00:36:56;-4.20;87.00
810;DHT22;387;48.772;9.186;2022-12-13T00:39:25;-4.30;87.00
810;DHT22;387;48.772;9.186;2022-12-13T00:41:51;-4.40;87.30
810;DHT22;387;48.772;9.186;2022-12-13T00:44:16;-4.40;87.60
810;DHT22;387;48.772;9.186;2022-12-13T00:46:44;-4.40;87.70
810;DHT22;387;48.772;9.186;2022-12-13T00:49:10;-4.40;87.80
810;DHT22;387;48.772;9.186;2022-12-13T00:51:36;-4.50;88.00
810;DHT22;387;48.772;9.186;2022-12-13T00:54:02;-4.40;88.00
810;DHT22;387;48.772;9.186;2022-12-13T00:56:30;-4.40;88.00
810;DHT22;387;48.772;9.186;2022-12-13T00:58:56;-4.40;88.00
810;DHT22;387;48.772;9.186;2022-12-13T01:01:24;-4.40;87.80
810;DHT22;387;48.772;9.186;2022-12-13T01:03:52;-4.40;87.80
810;DHT22;387;48.772;9.186;2022-12-13T01:06:42;-4.40;87.80
810;DHT22;387;48.772;9.186;2022-12-13T01:09:09;-4.40;87.80
810;DHT22;387;48.772;9.186;2022-12-13T01:11:36;-4.50;87.80
810;DHT22;387;48.772;9.186;2022-12-13T01:14:02;-4.50;88.00
810;DHT22;387;48.772;9.186;2022-12-13T01:16:28;-4.50;88.10
810;DHT22;387;48.772;9.186;2022-12-13T01:18:56;-4.60;88.10
810;DHT22;387;48.772;9.186;2022-12-13T01:21:22;-4.50;88.30
810;DHT22;387;48.772;9.186;2022-12-13T01:23:48;-4.60;88.40
810;DHT22;387;48.772;9.186;2022-12-13T01:26:17;-4.60;88.40
810;DHT22;387;48.772;9.186;2022-12-13T01:28:43;-4.60;88.70
810;DHT22;387;48.772;9.186;2022-12-13T01:31:14;-4.60;88.70
810;DHT22;387;48.772;9.186;2022-12-13T01:33:41;-4.70;88.70
810;DHT22;387;48.772;9.186;2022-12-13T01:36:09;-4.70;88.90
810;DHT22;387;48.772;9.186;2022-12-13T01:38:35;-4.70;88.90
810;DHT22;387;48.772;9.186;2022-12-13T01:41:01;-4.70;88.90
810;DHT22;387;48.772;9.186;2022-12-13T01:43:48;-4.70;89.20
810;DHT22;387;48.772;9.186;2022-12-13T01:46:15;-4.80;89.20
810;DHT22;387;48.772;9.186;2022-12-13T01:48:48;-4.80;89.30
810;DHT22;387;48.772;9.186;2022-12-13T01:51:18;-4.80;89.50
810;DHT22;387;48.772;9.186;2022-12-13T01:53:46;-4.80;89.50
810;DHT22;387;48.772;9.186;2022-12-13T01:56:20;-4.80;89.50
810;DHT22;387;48.772;9.186;2022-12-13T01:58:47;-4.90;89.30
810;DHT22;387;48.772;9.186;2022-12-13T02:01:13;-4.90;89.50
810;DHT22;387;48.772;9.186;2022-12-13T02:03:39;-4.90;89.60
810;DHT22;387;48.772;9.186;2022-12-13T02:08:40;-4.90;89.70
810;DHT22;387;48.772;9.186;2022-12-13T02:11:08;-4.90;89.70
810;DHT22;387;48.772;9.186;2022-12-13T02:13:34;-4.90;89.60
810;DHT22;387;48.772;9.186;2022-12-13T02:21:58;-5.00;89.70
810;DHT22;387;48.772;9.186;2022-12-13T02:24:39;-5.00;89.90
810;DHT22;387;48.772;9.186;2022-12-13T02:30:24;-5.10;89.70
810;DHT22;387;48.772;9.186;2022-12-13T02:36:10;-5.10;90.00
810;DHT22;387;48.772;9.186;2022-12-13T02:39:06;-5.20;90.10
810;DHT22;387;48.772;9.186;2022-12-13T02:44:21;-5.10;90.30
810;DHT22;387;48.772;9.186;2022-12-13T02:47:09;-5.20;90.30
810;DHT22;387;48.772;9.186;2022-12-13T02:49:39;-5.20;90.30
810;DHT22;387;48.772;9.186;2022-12-13T02:52:08;-5.20;90.40
810;DHT22;387;48.772;9.186;2022-12-13T02:54:35;-5.20;90.30
810;DHT22;387;48.772;9.186;2022-12-13T02:57:01;-5.20;90.30
810;DHT22;387;48.772;9.186;2022-12-13T02:59:30;-5.20;90.30
810;DHT22;387;48.772;9.186;2022-12-13T03:02:14;-5.20;90.30
810;DHT22;387;48.772;9.186;2022-12-13T03:08:11;-5.30;90.20
810;DHT22;387;48.772;9.186;2022-12-13T03:13:29;-5.30;90.20
810;DHT22;387;48.772;9.186;2022-12-13T03:16:36;-5.30;90.10
810;DHT22;387;48.772;9.186;2022-12-13T03:19:05;-5.30;90.10
810;DHT22;387;48.772;9.186;2022-12-13T03:21:48;-5.30;90.10
810;DHT22;387;48.772;9.186;2022-12-13T03:24:19;-5.40;90.10
810;DHT22;387;48.772;9.186;2022-12-13T03:26:45;-5.40;90.20
810;DHT22;387;48.772;9.186;2022-12-13T03:29:11;-5.40;90.20
810;DHT22;387;48.772;9.186;2022-12-13T03:31:37;-5.40;90.20
810;DHT22;387;48.772;9.186;2022-12-13T03:34:02;-5.40;90.30
810;DHT22;387;48.772;9.186;2022-12-13T03:36:28;-5.40;90.30
810;DHT22;387;48.772;9.186;2022-12-13T03:38:54;-5.50;90.30
810;DHT22;387;48.772;9.186;2022-12-13T03:41:23;-5.50;90.50
810;DHT22;387;48.772;9.186;2022-12-13T03:43:59;-5.50;90.50
810;DHT22;387;48.772;9.186;2022-12-13T03:46:27;-5.50;90.60
810;DHT22;387;48.772;9.186;2022-12-13T03:48:53;-5.40;90.70
810;DHT22;387;48.772;9.186;2022-12-13T03:51:18;-5.40;90.80
810;DHT22;387;48.772;9.186;2022-12-13T03:53:44;-5.40;90.80
810;DHT22;387;48.772;9.186;2022-12-13T03:56:09;-5.40;90.70
810;DHT22;387;48.772;9.186;2022-12-13T03:58:35;-5.40;90.50
810;DHT22;387;48.772;9.186;2022-12-13T04:01:01;-5.50;90.50
810;DHT22;387;48.772;9.186;2022-12-13T04:03:26;-5.50;90.60
810;DHT22;387;48.772;9.186;2022-12-13T04:05:52;-5.40;90.60
810;DHT22;387;48.772;9.186;2022-12-13T04:08:17;-5.40;90.60
810;DHT22;387;48.772;9.186;2022-12-13T04:10:43;-5.40;90.50
810;DHT22;387;48.772;9.186;2022-12-13T04:13:09;-5.40;90.50
810;DHT22;387;48.772;9.186;2022-12-13T04:15:54;-5.40;90.40
810;DHT22;387;48.772;9.186;2022-12-13T04:18:20;-5.40;90.40
810;DHT22;387;48.772;9.186;2022-12-13T04:20:46;-5.50;90.40
810;DHT22;387;48.772;9.186;2022-12-13T04:23:11;-5.50;90.40
810;DHT22;387;48.772;9.186;2022-12-13T04:25:38;-5.50;90.30
810;DHT22;387;48.772;9.186;2022-12-13T04:28:04;-5.50;90.30
810;DHT22;387;48.772;9.186;2022-12-13T04:30:30;-5.50;90.30
810;DHT22;387;48.772;9.186;2022-12-13T04:32:55;-5.50;90.30
810;DHT22;387;48.772;9.186;2022-12-13T04:35:21;-5.50;90.30
810;DHT22;387;48.772;9.186;2022-12-13T04:37:47;-5.50;90.40
810;DHT22;387;48.772;9.186;2022-12-13T04:40:13;-5.50;90.40
810;DHT22;387;48.772;9.186;2022-12-13T04:42:38;-5.50;90.40
810;DHT22;387;48.772;9.186;2022-12-13T04:45:05;-5.50;90.40
810;DHT22;387;48.772;9.186;2022-12-13T04:47:30;-5.50;90.50
810;DHT22;387;48.772;9.186;2022-12-13T04:49:56;-5.50;90.50
810;DHT22;387;48.772;9.186;2022-12-13T04:52:22;-5.40;90.50
810;DHT22;387;48.772;9.186;2022-12-13T04:54:47;-5.50;90.40
810;DHT22;387;48.772;9.186;2022-12-13T04:57:13;-5.50;90.30
810;DHT22;387;48.772;9.186;2022-12-13T04:59:39;-5.60;90.40
810;DHT22;387;48.772;9.186;2022-12-13T05:02:06;-5.60;90.40
810;DHT22;387;48.772;9.186;2022-12-13T05:04:32;-5.50;90.50
810;DHT22;387;48.772;9.186;2022-12-13T05:06:59;-5.50;90.40
810;DHT22;387;48.772;9.186;2022-12-13T05:09:24;-5.60;90.30
810;DHT22;387;48.772;9.186;2022-12-13T05:11:50;-5.60;90.30
810;DHT22;387;48.772;9.186;2022-12-13T05:14:16;-5.70;90.30
810;DHT22;387;48.772;9.186;2022-12-13T05:16:41;-5.60;90.30
810;DHT22;387;48.772;9.186;2022-12-13T05:19:07;-5.60;90.40
810;DHT22;387;48.772;9.186;2022-12-13T05:21:32;-5.60;90.40
810;DHT22;387;48.772;9.186;2022-12-13T05:24:00;-5.60;90.30
810;DHT22;387;48.772;9.186;2022-12-13T05:26:27;-5.60;90.20
810;DHT22;387;48.772;9.186;2022-12-13T05:28:55;-5.60;90.10
810;DHT22;387;48.772;9.186;2022-12-13T05:31:20;-5.70;90.00
810;DHT22;387;48.772;9.186;2022-12-13T05:33:46;-5.70;90.00
810;DHT22;387;48.772;9.186;2022-12-13T05:36:12;-5.70;90.00
810;DHT22;387;48.772;9.186;2022-12-13T05:38:37;-5.70;90.00
810;DHT22;387;48.772;9.186;2022-12-13T05:41:03;-5.70;90.00
810;DHT22;387;48.772;9.186;2022-12-13T05:43:29;-5.70;90.00
810;DHT22;387;48.772;9.186;2022-12-13T05:45:54;-5.70;90.00
810;DHT22;387;48.772;9.186;2022-12-13T05:48:20;-5.70;90.00
810;DHT22;387;48.772;9.186;2022-12-13T05:50:45;-5.70;89.90
810;DHT22;387;48.772;9.186;2022-12-13T05:53:11;-5.80;89.70
810;DHT22;387;48.772;9.186;2022-12-13T05:55:37;-5.80;89.90
810;DHT22;387;48.772;9.186;2022-12-13T05:58:03;-5.80;89.90
810;DHT22;387;48.772;9.186;2022-12-13T06:00:30;-5.80;89.90
810;DHT22;387;48.772;9.186;2022-12-13T06:02:55;-5.80;89.90
810;DHT22;387;48.772;9.186;2022-12-13T06:05:21;-5.80;90.00
810;DHT22;387;48.772;9.186;2022-12-13T06:07:47;-5.80;90.10
810;DHT22;387;48.772;9.186;2022-12-13T06:10:13;-5.70;90.10
810;DHT22;387;48.772;9.186;2022-12-13T06:12:38;-5.70;90.10
810;DHT22;387;48.772;9.186;2022-12-13T06:15:04;-5.70;90.10
810;DHT22;387;48.772;9.186;2022-12-13T06:17:31;-5.70;90.00
810;DHT22;387;48.772;9.186;2022-12-13T06:19:57;-5.70;90.00
810;DHT22;387;48.772;9.186;2022-12-13T06:22:23;-5.80;89.90
810;DHT22;387;48.772;9.186;2022-12-13T06:24:48;-5.70;90.00
810;DHT22;387;48.772;9.186;2022-12-13T06:27:14;-5.70;90.00
810;DHT22;387;48.772;9.186;2022-12-13T06:29:39;-5.70;90.00
810;DHT22;387;48.772;9.186;2022-12-13T06:32:05;-5.70;90.10
810;DHT22;387;48.772;9.186;2022-12-13T06:34:33;-5.70;90.00
810;DHT22;387;48.772;9.186;2022-12-13T06:36:59;-5.70;90.00
810;DHT22;387;48.772;9.186;2022-12-13T06:39:25;-5.70;90.00
810;DHT22;387;48.772;9.186;2022-12-13T06:41:51;-5.70;90.00
810;DHT22;387;48.772;9.186;2022-12-13T06:44:16;-5.70;90.00
810;DHT22;387;48.772;9.186;2022-12-13T06:46:42;-5.70;90.00
810;DHT22;387;48.772;9.186;2022-12-13T06:49:08;-5.70;90.00
810;DHT22;387;48.772;9.186;2022-12-13T06:51:34;-5.60;90.10
810;DHT22;387;48.772;9.186;2022-12-13T06:54:00;-5.60;90.00
810;DHT22;387;48.772;9.186;2022-12-13T06:56:29;-5.60;90.00
810;DHT22;387;48.772;9.186;2022-12-13T06:58:55;-5.70;89.90
810;DHT22;387;48.772;9.186;2022-12-13T07:01:20;-5.60;89.90
810;DHT22;387;48.772;9.186;2022-12-13T07:03:46;-5.60;89.90
810;DHT22;387;48.772;9.186;2022-12-13T07:06:17;-5.60;89.70
810;DHT22;387;48.772;9.186;2022-12-13T07:08:47;-5.60;89.70
810;DHT22;387;48.772;9.186;2022-12-13T07:11:14;-5.50;89.70
810;DHT22;387;48.772;9.186;2022-12-13T07:13:40;-5.50;89.70
810;DHT22;387;48.772;9.186;2022-12-13T07:16:06;-5.50;89.70
810;DHT22;387;48.772;9.186;2022-12-13T07:18:31;-5.40;89.70
810;DHT22;387;48.772;9.186;2022-12-13T07:20:57;-5.30;89.60
810;DHT22;387;48.772;9.186;2022-12-13T07:23:22;-5.20;89.50
810;DHT22;387;48.772;9.186;2022-12-13T07:25:52;-5.20;89.00
810;DHT22;387;48.772;9.186;2022-12-13T07:28:18;-5.10;88.90
810;DHT22;387;48.772;9.186;2022-12-13T07:30:44;-5.10;88.70
810;DHT22;387;48.772;9.186;2022-12-13T07:33:11;-5.10;88.40
810;DHT22;387;48.772;9.186;2022-12-13T07:35:37;-5.10;88.30
810;DHT22;387;48.772;9.186;2022-12-13T07:38:03;-5.20;88.10
810;DHT22;387;48.772;9.186;2022-12-13T07:40:29;-5.10;88.00
810;DHT22;387;48.772;9.186;2022-12-13T07:42:55;-5.10;88.00
810;DHT22;387;48.772;9.186;2022-12-13T07:45:22;-5.10;88.00
810;DHT22;387;48.772;9.186;2022-12-13T07:47:48;-5.10;87.80
810;DHT22;387;48.772;9.186;2022-12-13T07:50:14;-5.10;87.80
810;DHT22;387;48.772;9.186;2022-12-13T07:52:40;-5.10;87.70
810;DHT22;387;48.772;9.186;2022-12-13T07:55:07;-5.10;87.60
810;DHT22;387;48.772;9.186;2022-12-13T07:57:33;-5.10;87.40
810;DHT22;387;48.772;9.186;2022-12-13T07:59:59;-5.10;87.40
810;DHT22;387;48.772;9.186;2022-12-13T08:02:25;-5.00;87.40
810;DHT22;387;48.772;9.186;2022-12-13T08:04:51;-5.00;87.40
810;DHT22;387;48.772;9.186;2022-12-13T08:07:17;-4.90;87.10
810;DHT22;387;48.772;9.186;2022-12-13T08:09:43;-4.90;86.90
810;DHT22;387;48.772;9.186;2022-12-13T08:12:08;-4.90;86.80
810;DHT22;387;48.772;9.186;2022-12-13T08:14:34;-4.90;86.80
810;DHT22;387;48.772;9.186;2022-12-13T08:16:59;-4.80;86.80
810;DHT22;387;48.772;9.186;2022-12-13T08:19:25;-4.80;86.80
810;DHT22;387;48.772;9.186;2022-12-13T08:21:51;-4.70;86.80
810;DHT22;387;48.772;9.186;2022-12-13T08:24:17;-4.50;86.60
810;DHT22;387;48.772;9.186;2022-12-13T08:26:43;-4.50;86.20
810;DHT22;387;48.772;9.186;2022-12-13T08:29:09;-4.40;85.50
810;DHT22;387;48.772;9.186;2022-12-13T08:31:36;-4.50;84.90
810;DHT22;387;48.772;9.186;2022-12-13T08:34:01;-4.50;84.60
810;DHT22;387;48.772;9.186;2022-12-13T08:36:27;-4.40;84.90
810;DHT22;387;48.772;9.186;2022-12-13T08:38:54;-4.40;84.60
810;DHT22;387;48.772;9.186;2022-12-13T08:41:20;-4.30;84.30
810;DHT22;387;48.772;9.186;2022-12-13T08:43:46;-4.30;84.10
810;DHT22;387;48.772;9.186;2022-12-13T08:46:12;-4.30;84.00
810;DHT22;387;48.772;9.186;2022-12-13T08:48:38;-4.20;83.80
810;DHT22;387;48.772;9.186;2022-12-13T08:51:06;-4.20;83.80
810;DHT22;387;48.772;9.186;2022-12-13T08:53:33;-4.20;83.60
810;DHT22;387;48.772;9.186;2022-12-13T08:56:04;-4.20;83.40
810;DHT22;387;48.772;9.186;2022-12-13T08:58:30;-4.20;83.30
810;DHT22;387;48.772;9.186;2022-12-13T09:00:56;-4.20;83.10
810;DHT22;387;48.772;9.186;2022-12-13T09:03:22;-4.20;83.10
810;DHT22;387;48.772;9.186;2022-12-13T09:05:48;-4.00;83.00
810;DHT22;387;48.772;9.186;2022-12-13T09:08:13;-4.00;82.50
810;DHT22;387;48.772;9.186;2022-12-13T09:10:39;-4.00;81.90
810;DHT22;387;48.772;9.186;2022-12-13T09:13:05;-4.00;81.90
810;DHT22;387;48.772;9.186;2022-12-13T09:15:31;-3.90;81.50
810;DHT22;387;48.772;9.186;2022-12-13T09:17:57;-3.80;81.20
810;DHT22;387;48.772;9.186;2022-12-13T09:20:23;-3.70;80.90
810;DHT22;387;48.772;9.186;2022-12-13T09:22:49;-3.70;80.90
810;DHT22;387;48.772;9.186;2022-12-13T09:25:15;-3.50;81.10
810;DHT22;387;48.772;9.186;2022-12-13T09:27:40;-3.40;80.80
810;DHT22;387;48.772;9.186;2022-12-13T09:30:08;-3.30;80.50
810;DHT22;387;48.772;9.186;2022-12-13T09:32:37;-3.20;79.70
810;DHT22;387;48.772;9.186;2022-12-13T09:35:03;-3.10;78.60
810;DHT22;387;48.772;9.186;2022-12-13T09:37:29;-3.10;78.10
810;DHT22;387;48.772;9.186;2022-12-13T09:39:55;-3.10;77.80
810;DHT22;387;48.772;9.186;2022-12-13T09:42:23;-3.10;77.70
810;DHT22;387;48.772;9.186;2022-12-13T09:44:53;-3.00;77.10
810;DHT22;387;48.772;9.186;2022-12-13T09:47:33;-3.00;77.10
810;DHT22;387;48.772;9.186;2022-12-13T09:50:00;-3.00;77.00
810;DHT22;387;48.772;9.186;2022-12-13T09:52:33;-3.10;76.70
810;DHT22;387;48.772;9.186;2022-12-13T09:55:01;-3.00;76.80
810;DHT22;387;48.772;9.186;2022-12-13T09:57:29;-2.90;76.70
810;DHT22;387;48.772;9.186;2022-12-13T09:59:55;-2.90;76.40
810;DHT22;387;48.772;9.186;2022-12-13T10:02:27;-2.80;76.50
810;DHT22;387;48.772;9.186;2022-12-13T10:05:10;-2.70;76.20
810;DHT22;387;48.772;9.186;2022-12-13T10:07:38;-2.70;75.70
810;DHT22;387;48.772;9.186;2022-12-13T10:10:05;-2.60;75.80
810;DHT22;387;48.772;9.186;2022-12-13T10:12:32;-2.50;75.70
810;DHT22;387;48.772;9.186;2022-12-13T10:15:01;-2.50;75.40
810;DHT22;387;48.772;9.186;2022-12-13T10:17:33;-2.60;75.10
810;DHT22;387;48.772;9.186;2022-12-13T10:20:00;-2.60;75.50
810;DHT22;387;48.772;9.186;2022-12-13T10:22:27;-2.60;75.50
810;DHT22;387;48.772;9.186;2022-12-13T10:25:00;-2.60;75.10
810;DHT22;387;48.772;9.186;2022-12-13T10:27:39;-2.60;75.40
810;DHT22;387;48.772;9.186;2022-12-13T10:30:17;-2.60;75.10
810;DHT22;387;48.772;9.186;2022-12-13T10:35:31;-2.60;75.20
810;DHT22;387;48.772;9.186;2022-12-13T10:38:20;-2.60;75.10
810;DHT22;387;48.772;9.186;2022-12-13T10:40:45;-2.50;75.20
810;DHT22;387;48.772;9.186;2022-12-13T10:43:17;-2.40;74.80
810;DHT22;387;48.772;9.186;2022-12-13T10:45:59;-2.30;74.60
810;DHT22;387;48.772;9.186;2022-12-13T10:48:38;-2.20;74.50
810;DHT22;387;48.772;9.186;2022-12-13T10:51:11;-2.10;74.00
810;DHT22;387;48.772;9.186;2022-12-13T10:53:45;-1.90;74.00
810;DHT22;387;48.772;9.186;2022-12-13T10:56:12;-1.80;73.60
810;DHT22;387;48.772;9.186;2022-12-13T10:58:43;-1.70;73.90
810;DHT22;387;48.772;9.186;2022-12-13T11:01:18;-1.60;74.00
810;DHT22;387;48.772;9.186;2022-12-13T11:04:05;-1.50;74.00
810;DHT22;387;48.772;9.186;2022-12-13T11:06:45;-1.60;73.50
810;DHT22;387;48.772;9.186;2022-12-13T11:09:31;-1.60;73.70
810;DHT22;387;48.772;9.186;2022-12-13T11:12:00;-1.70;73.70
810;DHT22;387;48.772;9.186;2022-12-13T11:14:30;-1.60;73.70
810;DHT22;387;48.772;9.186;2022-12-13T11:17:05;-1.70;73.70
810;DHT22;387;48.772;9.186;2022-12-13T11:21:57;-1.60;73.90
810;DHT22;387;48.772;9.186;2022-12-13T11:24:29;-1.50;74.20
810;DHT22;387;48.772;9.186;2022-12-13T11:26:58;-1.40;74.00
810;DHT22;387;48.772;9.186;2022-12-13T11:32:13;-1.30;72.70
810;DHT22;387;48.772;9.186;2022-12-13T11:34:49;-1.40;72.40
810;DHT22;387;48.772;9.186;2022-12-13T11:40:11;-1.30;72.40
810;DHT22;387;48.772;9.186;2022-12-13T11:42:57;-1.40;72.90
810;DHT22;387;48.772;9.186;2022-12-13T11:45:25;-1.40;73.00
810;DHT22;387;48.772;9.186;2022-12-13T11:55:56;-1.10;73.30
810;DHT22;387;48.772;9.186;2022-12-13T11:58:26;-1.00;73.30
810;DHT22;387;48.772;9.186;2022-12-13T12:01:10;-1.10;73.20
810;DHT22;387;48.772;9.186;2022-12-13T12:03:47;-1.00;73.00
810;DHT22;387;48.772;9.186;2022-12-13T12:06:20;-1.00;73.00
810;DHT22;387;48.772;9.186;2022-12-13T12:14:23;-0.90;72.70
810;DHT22;387;48.772;9.186;2022-12-13T12:16:55;-0.80;72.30
810;DHT22;387;48.772;9.186;2022-12-13T12:19:23;-0.80;72.30
810;DHT22;387;48.772;9.186;2022-12-13T12:25:17;-0.60;72.30
810;DHT22;387;48.772;9.186;2022-12-13T12:28:31;-0.60;72.00
810;DHT22;387;48.772;9.186;2022-12-13T12:31:18;-0.60;72.00
810;DHT22;387;48.772;9.186;2022-12-13T12:41:39;-0.60;72.10
810;DHT22;387;48.772;9.186;2022-12-13T12:47:23;-0.60;72.30
810;DHT22;387;48.772;9.186;2022-12-13T12:50:13;-0.50;72.40
810;DHT22;387;48.772;9.186;2022-12-13T12:53:23;-0.60;72.30
810;DHT22;387;48.772;9.186;2022-12-13T13:01:49;-0.40;72.10
810;DHT22;387;48.772;9.186;2022-12-13T13:04:21;-0.40;72.10
810;DHT22;387;48.772;9.186;2022-12-13T13:06:57;-0.40;72.30
810;DHT22;387;48.772;9.186;2022-12-13T13:09:24;-0.40;72.30
810;DHT22;387;48.772;9.186;2022-12-13T13:11:50;-0.30;72.10
810;DHT22;387;48.772;9.186;2022-12-13T13:14:36;-0.30;72.00
810;DHT22;387;48.772;9.186;2022-12-13T13:20:17;-0.30;71.70
810;DHT22;387;48.772;9.186;2022-12-13T13:22:43;-0.40;72.10
810;DHT22;387;48.772;9.186;2022-12-13T13:27:40;-0.30;72.30
810;DHT22;387;48.772;9.186;2022-12-13T13:30:27;-0.20;72.30
810;DHT22;387;48.772;9.186;2022-12-13T13:32:55;-0.10;71.80
810;DHT22;387;48.772;9.186;2022-12-13T13:38:00;0.00;71.70
810;DHT22;387;48.772;9.186;2022-12-13T13:48:23;-0.10;71.10
810;DHT22;387;48.772;9.186;2022-12-13T14:17:45;0.10;69.20
810;DHT22;387;48.772;9.186;2022-12-13T14:28:52;-0.20;69.10
810;DHT22;387;48.772;9.186;2022-12-13T14:31:24;-0.20;69.10
810;DHT22;387;48.772;9.186;2022-12-13T14:33:53;-0.20;69.50
810;DHT22;387;48.772;9.186;2022-12-13T14:36:27;-0.10;69.20
810;DHT22;387;48.772;9.186;2022-12-13T14:39:12;-0.10;69.40
810;DHT22;387;48.772;9.186;2022-12-13T14:41:46;-0.10;69.10
810;DHT22;387;48.772;9.186;2022-12-13T14:44:27;-0.10;69.20
810;DHT22;387;48.772;9.186;2022-12-13T14:46:55;-0.10;68.90
810;DHT22;387;48.772;9.186;2022-12-13T14:49:23;-0.10;68.60
810;DHT22;387;48.772;9.186;2022-12-13T14:52:00;-0.10;68.60
810;DHT22;387;48.772;9.186;2022-12-13T14:54:44;-0.10;68.90
810;DHT22;387;48.772;9.186;2022-12-13T14:57:21;0.00;68.80
810;DHT22;387;48.772;9.186;2022-12-13T14:59:50;0.00;68.60
810;DHT22;387;48.772;9.186;2022-12-13T15:02:22;0.00;68.60
810;DHT22;387;48.772;9.186;2022-12-13T15:04:54;0.10;68.60
810;DHT22;387;48.772;9.186;2022-12-13T15:07:30;0.00;68.50
810;DHT22;387;48.772;9.186;2022-12-13T15:10:04;0.00;68.30
810;DHT22;387;48.772;9.186;2022-12-13T15:12:30;0.00;68.30
810;DHT22;387;48.772;9.186;2022-12-13T15:15:04;0.00;67.90
810;DHT22;387;48.772;9.186;2022-12-13T15:17:39;0.00;67.70
810;DHT22;387;48.772;9.186;2022-12-13T15:20:25;0.00;67.60
810;DHT22;387;48.772;9.186;2022-12-13T15:23:25;0.00;67.50
810;DHT22;387;48.772;9.186;2022-12-13T15:28:34;-0.10;66.60
810;DHT22;387;48.772;9.186;2022-12-13T15:31:00;-0.20;67.00
810;DHT22;387;48.772;9.186;2022-12-13T15:33:27;-0.20;67.30
810;DHT22;387;48.772;9.186;2022-12-13T15:36:13;-0.20;67.60
810;DHT22;387;48.772;9.186;2022-12-13T15:41:17;-0.20;67.20
810;DHT22;387;48.772;9.186;2022-12-13T15:43:49;-0.30;67.30
810;DHT22;387;48.772;9.186;2022-12-13T15:46:28;-0.30;67.50
810;DHT22;387;48.772;9.186;2022-12-13T15:48:56;-0.30;67.60
810;DHT22;387;48.772;9.186;2022-12-13T15:51:24;-0.40;67.50
810;DHT22;387;48.772;9.186;2022-12-13T15:56:54;-0.40;67.90
810;DHT22;387;48.772;9.186;2022-12-13T16:01:49;-0.40;68.00
810;DHT22;387;48.772;9.186;2022-12-13T16:04:24;-0.40;68.60
810;DHT22;387;48.772;9.186;2022-12-13T16:06:51;-0.40;68.80
810;DHT22;387;48.772;9.186;2022-12-13T16:09:22;-0.40;68.90
810;DHT22;387;48.772;9.186;2022-12-13T16:11:56;-0.40;68.80
810;DHT22;387;48.772;9.186;2022-12-13T16:19:33;-0.40;68.80
810;DHT22;387;48.772;9.186;2022-12-13T16:21:59;-0.40;68.90
810;DHT22;387;48.772;9.186;2022-12-13T16:24:24;-0.40;69.20
810;DHT22;387;48.772;9.186;2022-12-13T16:26:50;-0.40;69.10
810;DHT22;387;48.772;9.186;2022-12-13T16:29:17;-0.40;68.90
810;DHT22;387;48.772;9.186;2022-12-13T16:31:46;-0.40;68.90
810;DHT22;387;48.772;9.186;2022-12-13T16:34:12;-0.50;68.60
810;DHT22;387;48.772;9.186;2022-12-13T16:36:39;-0.50;68.90
810;DHT22;387;48.772;9.186;2022-12-13T16:39:06;-0.60;69.20
810;DHT22;387;48.772;9.186;2022-12-13T16:41:36;-0.60;69.40
810;DHT22;387;48.772;9.186;2022-12-13T16:44:03;-0.60;69.50
810;DHT22;387;48.772;9.186;2022-12-13T16:46:30;-0.60;69.70
810;DHT22;387;48.772;9.186;2022-12-13T16:48:55;-0.60;69.90
810;DHT22;387;48.772;9.186;2022-12-13T16:51:21;-0.60;69.90
810;DHT22;387;48.772;9.186;2022-12-13T16:53:47;-0.60;70.70
810;DHT22;387;48.772;9.186;2022-12-13T16:56:14;-0.50;70.50
810;DHT22;387;48.772;9.186;2022-12-13T16:58:46;-0.50;69.90
810;DHT22;387;48.772;9.186;2022-12-13T17:01:13;-0.50;69.80
810;DHT22;387;48.772;9.186;2022-12-13T17:03:39;-0.50;69.80
810;DHT22;387;48.772;9.186;2022-12-13T17:06:07;-0.60;70.10
810;DHT22;387;48.772;9.186;2022-12-13T17:08:34;-0.70;70.50
810;DHT22;387;48.772;9.186;2022-12-13T17:11:00;-0.70;70.80
810;DHT22;387;48.772;9.186;2022-12-13T17:13:26;-0.70;71.00
810;DHT22;387;48.772;9.186;2022-12-13T17:15:52;-0.70;71.00
810;DHT22;387;48.772;9.186;2022-12-13T17:18:18;-0.70;71.10
810;DHT22;387;48.772;9.186;2022-12-13T17:20:44;-0.70;70.70
810;DHT22;387;48.772;9.186;2022-12-13T17:23:10;-0.70;71.00
810;DHT22;387;48.772;9.186;2022-12-13T17:25:37;-0.80;71.30
810;DHT22;387;48.772;9.186;2022-12-13T17:28:06;-0.80;71.30
810;DHT22;387;48.772;9.186;2022-12-13T17:30:34;-0.80;71.40
810;DHT22;387;48.772;9.186;2022-12-13T17:33:04;-0.80;71.60
810;DHT22;387;48.772;9.186;2022-12-13T17:35:33;-0.90;71.60
810;DHT22;387;48.772;9.186;2022-12-13T17:37:58;-0.80;71.70
810;DHT22;387;48.772;9.186;2022-12-13T17:40:24;-0.80;71.80
810;DHT22;387;48.772;9.186;2022-12-13T17:42:50;-0.90;71.70
810;DHT22;387;48.772;9.186;2022-12-13T17:45:17;-0.90;71.80
810;DHT22;387;48.772;9.186;2022-12-13T17:47:46;-0.90;71.70
810;DHT22;387;48.772;9.186;2022-12-13T17:50:13;-0.90;72.00
810;DHT22;387;48.772;9.186;2022-12-13T17:52:39;-0.80;71.40
810;DHT22;387;48.772;9.186;2022-12-13T17:55:05;-0.80;70.70
810;DHT22;387;48.772;9.186;2022-12-13T17:57:31;-0.80;70.40
810;DHT22;387;48.772;9.186;2022-12-13T18:00:00;-0.80;69.50
810;DHT22;387;48.772;9.186;2022-12-13T18:02:26;-0.80;68.60
810;DHT22;387;48.772;9.186;2022-12-13T18:04:52;-0.90;68.60
810;DHT22;387;48.772;9.186;2022-12-13T18:07:18;-1.00;68.90
810;DHT22;387;48.772;9.186;2022-12-13T18:09:44;-1.00;69.40
810;DHT22;387;48.772;9.186;2022-12-13T18:12:10;-1.00;69.20
810;DHT22;387;48.772;9.186;2022-12-13T18:14:37;-1.00;69.20
810;DHT22;387;48.772;9.186;2022-12-13T18:17:03;-1.00;69.10
810;DHT22;387;48.772;9.186;2022-12-13T18:19:29;-1.00;69.20
810;DHT22;387;48.772;9.186;2022-12-13T18:21:59;-1.00;69.50
810;DHT22;387;48.772;9.186;2022-12-13T18:24:25;-1.00;69.40
810;DHT22;387;48.772;9.186;2022-12-13T18:26:50;-1.00;69.50
810;DHT22;387;48.772;9.186;2022-12-13T18:29:16;-1.00;69.70
810;DHT22;387;48.772;9.186;2022-12-13T18:31:44;-1.00;69.80
810;DHT22;387;48.772;9.186;2022-12-13T18:34:10;-1.00;69.70
810;DHT22;387;48.772;9.186;2022-12-13T18:36:36;-1.10;69.80
810;DHT22;387;48.772;9.186;2022-12-13T18:39:04;-1.10;69.90
810;DHT22;387;48.772;9.186;2022-12-13T18:41:30;-1.10;70.20
810;DHT22;387;48.772;9.186;2022-12-13T18:43:59;-1.10;70.40
810;DHT22;387;48.772;9.186;2022-12-13T18:46:25;-1.20;70.20
810;DHT22;387;48.772;9.186;2022-12-13T18:48:51;-1.20;70.70
810;DHT22;387;48.772;9.186;2022-12-13T18:51:16;-1.20;70.80
810;DHT22;387;48.772;9.186;2022-12-13T18:53:42;-1.30;71.00
810;DHT22;387;48.772;9.186;2022-12-13T18:56:10;-1.20;71.10
810;DHT22;387;48.772;9.186;2022-12-13T18:58:36;-1.20;71.10
810;DHT22;387;48.772;9.186;2022-12-13T19:01:03;-1.20;71.10